Impacts METAR Board INFO
IDs:

KCVG - Cincinnati Intl, KY, US

Updated at: 0226 UTC 17 Dec 2017
Potential Impact None Slight Moderate High
Time16/14Z 16/15Z 16/16Z 16/17Z 16/18Z 16/19Z 16/20Z 16/21Z 16/22Z 16/23Z 17/00Z 17/01Z 17/02Z
VIS10 10 10 10 10 10 10 10 10 10 10 10 10
CIG-- -- -- -- -- -- -- -- -- -- -- -- --
CoverCLRCLRCLRCLRCLRCLRCLRCLRFEWFEWFEWFEWFEW
FltCatVFRVFRVFRVFRVFRVFRVFRVFRVFRVFRVFRVFRVFR
WX--------------------------
WDir210210220210230220220220210200200200210
WSpd12 9 11 16 17 12 13 10 10 9 10 9 8
WGst18 -- 18 20 23 21 -- 19 -- -- -- -- --
Raw hourly METARs
KCVG 161352Z 21012G18KT 10SM CLR 01/M03 A3006 RMK AO2 SLP184 T00061033
KCVG 161452Z 21009KT 10SM CLR 02/M03 A3008 RMK AO2 SLP192 T00221028 53005
KCVG 161552Z 22011G18KT 10SM CLR 04/M02 A3009 RMK AO2 SLP193 T00441022
KCVG 161652Z 21016G20KT 10SM CLR 07/M02 A3007 RMK AO2 PK WND 23026/1640 SLP188 T00671017
KCVG 161752Z 23017G23KT 10SM CLR 08/M02 A3006 RMK AO2 SLP182 T00831017 10083 21006 58007
KCVG 161852Z 22012G21KT 10SM CLR 09/M02 A3005 RMK AO2 SLP178 T00941017
KCVG 161952Z 22013KT 10SM CLR 09/M02 A3004 RMK AO2 SLP176 T00941022
KCVG 162052Z 22010G19KT 10SM CLR 10/M03 A3004 RMK AO2 SLP176 T01001028 55006
KCVG 162152Z 21010KT 10SM FEW250 09/M03 A3006 RMK AO2 SLP181 T00891028
KCVG 162252Z 20009KT 10SM FEW250 07/M02 A3008 RMK AO2 SLP187 T00721022
KCVG 162352Z 20010KT 10SM FEW250 07/M02 A3008 RMK AO2 SLP189 T00671017 10100 20061 51011
KCVG 170052Z 20009KT 10SM FEW250 06/M02 A3010 RMK AO2 SLP195 T00611017
KCVG 170204Z 21008KT 10SM FEW250 06/M01 A3011 RMK AO2 T00561011